Time;durP1;ratioP1;P1;durP2;ratioP2;P2;SDS_P1;SDS_P2;PMS_P1;PMS_P2;Temp;Humidity;BMP_temperature;BMP_pressure;BME280_temperature;BME280_humidity;BME280_pressure;Samples;Min_cycle;Max_cycle;Signal;HPM_P1;HPM_P2
2023/05/06 00:00:52;;;;;;;1.65;1.02;;;;;;;10.44;75.27;101303.31;15522791;28;20337;-50
2023/05/06 00:08:26;;;;;;;4.22;1.25;;;;;;;10.44;74.01;101293.44;15541195;28;20076;-51
2023/05/06 00:16:07;;;;;;;3.30;1.52;;;;;;;9.87;76.22;101266.72;15543640;28;20057;-49
2023/05/06 00:23:43;;;;;;;0.90;0.82;;;;;;;9.83;76.57;101262.75;15543402;28;20115;-48
2023/05/06 00:31:15;;;;;;;1.50;0.88;;;;;;;9.53;77.30;101240.63;15543309;28;20056;-55
2023/05/06 00:38:49;;;;;;;0.73;0.70;;;;;;;9.55;76.84;101238.56;15542627;28;20045;-50
2023/05/06 00:46:23;;;;;;;2.33;1.00;;;;;;;9.43;76.89;101239.09;15526118;28;20065;-54
2023/05/06 00:53:57;;;;;;;1.23;1.03;;;;;;;9.47;77.27;101225.31;15525139;28;20037;-52
2023/05/06 01:01:32;;;;;;;0.77;0.75;;;;;;;9.70;76.63;101216.06;15542190;28;20046;-53
2023/05/06 01:09:14;;;;;;;3.22;1.13;;;;;;;9.39;78.00;101216.38;15541009;28;20100;-50
2023/05/06 01:16:51;;;;;;;1.63;1.10;;;;;;;9.30;77.77;101211.34;15520092;28;20042;-50
2023/05/06 01:24:36;;;;;;;1.80;1.13;;;;;;;9.33;77.48;101209.13;15539569;28;20092;-51
2023/05/06 01:32:50;;;;;;;3.72;0.85;;;;;;;9.72;75.37;101213.19;15551834;28;20306;-51
2023/05/06 01:40:27;;;;;;;1.23;0.93;;;;;;;9.38;76.77;101213.91;15548688;28;20037;-52
2023/05/06 01:48:01;;;;;;;2.17;1.25;;;;;;;9.89;75.46;101238.69;15551888;28;20042;-49
2023/05/06 01:55:35;;;;;;;2.03;1.37;;;;;;;9.92;75.65;101227.56;15551291;28;20097;-48
2023/05/06 02:03:08;;;;;;;0.93;0.77;;;;;;;9.85;75.96;101223.19;15534545;28;20042;-47
2023/05/06 02:10:45;;;;;;;2.95;1.55;;;;;;;9.62;76.44;101228.75;15549687;28;20068;-47
2023/05/06 02:18:18;;;;;;;1.33;0.93;;;;;;;9.62;75.76;101220.72;15549512;28;20064;-49
2023/05/06 02:25:52;;;;;;;1.87;0.77;;;;;;;9.48;76.34;101222.44;15550945;28;20053;-47
2023/05/06 02:33:25;;;;;;;1.52;0.63;;;;;;;9.55;76.65;101217.13;15516306;28;20104;-54
2023/05/06 02:40:59;;;;;;;2.83;1.43;;;;;;;9.21;77.69;101229.38;15538753;28;20048;-51
2023/05/06 02:48:32;;;;;;;1.85;1.48;;;;;;;9.23;78.10;101227.31;15547797;28;20054;-50
2023/05/06 02:56:07;;;;;;;4.95;1.38;;;;;;;9.48;76.51;101221.63;15532184;28;20049;-49
2023/05/06 03:03:40;;;;;;;0.63;0.63;;;;;;;9.37;76.55;101212.22;15544310;28;20041;-49
2023/05/06 03:11:14;;;;;;;15.48;1.60;;;;;;;9.24;77.81;101206.75;15529708;28;20208;-49
2023/05/06 03:18:47;;;;;;;0.40;0.40;;;;;;;9.18;78.26;101206.47;15530446;28;20046;-47
2023/05/06 03:26:22;;;;;;;2.60;1.10;;;;;;;8.87;79.11;101205.91;15534320;28;20030;-47
2023/05/06 03:33:58;;;;;;;1.27;1.17;;;;;;;8.88;79.57;101191.50;15529355;28;20076;-49
2023/05/06 03:41:32;;;;;;;7.38;1.13;;;;;;;8.81;79.44;101182.56;15543499;28;20120;-51
2023/05/06 03:49:06;;;;;;;1.75;0.90;;;;;;;8.78;78.91;101178.41;15523119;28;20069;-52
2023/05/06 03:56:44;;;;;;;2.17;1.55;;;;;;;8.75;78.63;101180.63;15527482;28;20050;-53
2023/05/06 04:04:18;;;;;;;2.33;0.88;;;;;;;8.97;77.53;101185.03;15527797;28;20038;-53
2023/05/06 04:11:52;;;;;;;;;;;;;;;8.85;78.24;101189.19;15545345;28;20129;-51
2023/05/06 04:19:25;;;;;;;1.13;0.90;;;;;;;8.53;78.75;101191.25;15542909;28;20004;-52
2023/05/06 04:27:00;;;;;;;3.93;1.47;;;;;;;8.55;78.18;101207.97;15510611;28;20572;-54
2023/05/06 04:34:35;;;;;;;1.92;1.08;;;;;;;8.36;78.60;101221.88;15540297;23;20045;-48
2023/05/06 04:42:09;;;;;;;1.00;0.93;;;;;;;8.55;77.50;101212.50;15533610;28;20519;-49
2023/05/06 04:49:51;;;;;;;2.17;1.27;;;;;;;8.44;78.30;101224.50;15554589;28;20053;-48
2023/05/06 04:57:28;;;;;;;2.38;0.60;;;;;;;8.81;77.23;101236.09;15535446;28;20045;-48
2023/05/06 05:05:04;;;;;;;1.10;1.00;;;;;;;8.55;78.32;101240.09;15539152;28;20104;-51
2023/05/06 05:12:38;;;;;;;2.40;0.88;;;;;;;8.60;77.64;101229.66;15551542;28;20088;-50
2023/05/06 05:20:13;;;;;;;2.35;1.50;;;;;;;8.39;78.27;101234.91;15574450;28;20054;-49
2023/05/06 05:27:48;;;;;;;1.88;1.45;;;;;;;8.54;77.29;101245.63;15561440;28;20026;-52
2023/05/06 05:35:21;;;;;;;2.72;1.52;;;;;;;8.42;77.58;101245.25;15541385;28;20428;-49
2023/05/06 05:42:57;;;;;;;1.05;0.85;;;;;;;8.35;78.03;101250.47;15555412;28;20034;-48
2023/05/06 05:50:38;;;;;;;2.72;1.75;;;;;;;8.35;77.27;101252.31;15540898;28;20132;-52
2023/05/06 05:58:13;;;;;;;4.68;2.25;;;;;;;8.32;77.48;101248.16;15542574;28;20049;-48
2023/05/06 06:05:48;;;;;;;1.63;1.15;;;;;;;8.75;77.11;101256.41;15540156;28;20042;-48
2023/05/06 06:13:23;;;;;;;2.65;1.30;;;;;;;8.85;76.93;101258.78;15554036;28;20411;-52
2023/05/06 06:20:58;;;;;;;1.58;0.90;;;;;;;8.98;75.24;101258.13;15569601;28;20436;-52
2023/05/06 06:28:32;;;;;;;;;;;;;;;8.43;77.27;101268.28;15520622;28;20445;-54
2023/05/06 06:36:08;;;;;;;3.17;1.30;;;;;;;8.50;76.58;101281.78;15536446;28;19921;-48
2023/05/06 06:43:45;;;;;;;1.73;0.95;;;;;;;8.42;76.43;101277.34;15554400;28;20044;-50
2023/05/06 06:51:32;;;;;;;3.42;1.48;;;;;;;8.23;77.08;101272.50;15569192;28;20085;-51
2023/05/06 06:59:07;;;;;;;1.13;0.97;;;;;;;8.42;77.28;101298.75;15559975;28;20136;-54
2023/05/06 07:06:45;;;;;;;0.93;0.70;;;;;;;8.77;75.82;101299.06;15550994;28;20129;-48
2023/05/06 07:14:22;;;;;;;0.93;0.88;;;;;;;8.49;75.86;101288.16;15547034;28;20045;-52
2023/05/06 07:21:55;;;;;;;3.13;1.70;;;;;;;8.37;76.31;101291.25;15548505;28;20042;-53
2023/05/06 07:29:29;;;;;;;3.57;1.47;;;;;;;8.94;75.23;101298.66;15535482;28;20048;-53
2023/05/06 07:37:03;;;;;;;3.08;0.95;;;;;;;8.69;75.07;101295.44;15534026;28;20061;-51
2023/05/06 07:44:39;;;;;;;4.65;1.52;;;;;;;8.83;75.24;101312.53;15548828;28;20555;-51
2023/05/06 07:52:12;;;;;;;2.65;1.75;;;;;;;8.78;74.67;101320.28;15548645;28;20149;-50
2023/05/06 07:59:49;;;;;;;4.60;1.67;;;;;;;9.13;74.01;101329.41;15530396;28;20137;-55
2023/05/06 08:07:22;;;;;;;3.47;1.75;;;;;;;8.99;73.80;101330.22;15548258;28;20042;-50
2023/05/06 08:14:56;;;;;;;1.52;0.93;;;;;;;8.75;75.11;101347.41;15549668;28;20547;-52
2023/05/06 08:22:29;;;;;;;8.52;1.85;;;;;;;8.90;74.67;101340.19;15549390;28;20494;-52
2023/05/06 08:30:03;;;;;;;5.23;1.43;;;;;;;8.48;75.52;101339.97;15548602;28;20050;-52
2023/05/06 08:37:36;;;;;;;6.07;2.03;;;;;;;8.58;75.40;101352.09;15545892;28;20469;-53
2023/05/06 08:45:13;;;;;;;3.97;2.33;;;;;;;8.94;74.69;101359.41;15547618;28;20038;-51
2023/05/06 08:52:47;;;;;;;2.60;1.55;;;;;;;8.75;75.58;101370.66;15585049;28;20045;-50
2023/05/06 09:00:23;;;;;;;2.83;1.52;;;;;;;9.40;73.64;101376.09;15543962;28;20049;-49
2023/05/06 09:07:56;;;;;;;2.90;1.83;;;;;;;9.40;73.93;101391.34;15529865;28;20332;-53
2023/05/06 09:15:41;;;;;;;1.33;1.13;;;;;;;9.83;73.44;101389.59;15564429;28;20487;-54
2023/05/06 09:23:15;;;;;;;1.92;0.93;;;;;;;8.99;75.67;101388.31;15548666;28;20133;-53
2023/05/06 09:30:50;;;;;;;2.70;1.33;;;;;;;9.43;74.79;101386.47;15547805;28;20076;-50
2023/05/06 09:38:23;;;;;;;2.42;1.85;;;;;;;8.98;77.29;101390.16;15544903;28;20034;-50
2023/05/06 09:45:58;;;;;;;3.78;1.50;;;;;;;9.26;76.60;101387.66;15550966;28;20092;-52
2023/05/06 09:53:34;;;;;;;5.03;2.05;;;;;;;9.19;78.75;101395.63;15557137;28;20045;-50
2023/05/06 10:01:09;;;;;;;2.45;1.25;;;;;;;9.61;77.79;101404.00;15555881;28;20057;-51
2023/05/06 10:08:44;;;;;;;3.22;2.03;;;;;;;9.88;76.68;101411.31;15556895;28;20060;-49
2023/05/06 10:16:19;;;;;;;2.60;1.23;;;;;;;9.75;76.54;101415.72;15554092;28;20037;-53
2023/05/06 10:24:02;;;;;;;2.28;1.75;;;;;;;9.42;77.04;101418.81;15537212;28;20688;-53
2023/05/06 10:31:43;;;;;;;2.50;1.67;;;;;;;9.12;78.88;101413.44;15551266;28;20400;-49
2023/05/06 10:39:16;;;;;;;3.45;1.77;;;;;;;9.07;79.18;101405.13;15552485;28;20503;-53
2023/05/06 10:46:59;;;;;;;6.57;0.88;;;;;;;10.01;76.01;101407.94;15537027;28;20042;-53
2023/05/06 10:54:31;;;;;;;6.17;1.43;;;;;;;9.13;78.80;101412.41;15535058;28;20072;-53
2023/05/06 11:02:09;;;;;;;2.38;1.20;;;;;;;9.51;77.64;101416.84;15553030;28;20956;-54
2023/05/06 11:10:01;;;;;;;3.45;1.60;;;;;;;9.51;77.77;101422.19;15550552;28;20061;-51
2023/05/06 11:17:35;;;;;;;2.63;1.83;;;;;;;9.76;77.08;101430.78;15553356;28;20045;-53
2023/05/06 11:25:08;;;;;;;2.22;1.73;;;;;;;9.78;76.95;101431.41;15537880;28;20042;-52
2023/05/06 11:32:43;;;;;;;1.40;1.17;;;;;;;9.61;77.20;101434.31;15553058;28;20041;-50
2023/05/06 11:40:36;;;;;;;13.10;4.30;;;;;;;9.56;77.36;101436.72;15561931;28;20048;-56
2023/05/06 11:48:13;;;;;;;2.60;1.30;;;;;;;9.42;77.14;101454.47;15549352;28;20069;-53
2023/05/06 11:55:46;;;;;;;4.72;1.08;;;;;;;9.06;77.29;101459.72;15550126;28;20502;-52
2023/05/06 12:03:21;;;;;;;1.40;1.02;;;;;;;9.59;75.51;101468.50;15546512;28;20046;-50
2023/05/06 12:10:59;;;;;;;5.50;2.35;;;;;;;9.60;75.74;101491.59;15550746;28;20042;-53
2023/05/06 12:18:33;;;;;;;2.83;1.45;;;;;;;9.42;75.91;101505.38;15549590;28;20041;-51
2023/05/06 12:26:07;;;;;;;2.30;1.33;;;;;;;9.40;76.31;101502.03;15534199;28;20042;-57
2023/05/06 12:33:47;;;;;;;4.40;1.33;;;;;;;10.09;74.34;101520.50;15533821;28;20657;-51
2023/05/06 12:41:24;;;;;;;2.33;1.20;;;;;;;9.71;75.50;101515.28;15546931;28;20064;-52
2023/05/06 12:49:02;;;;;;;1.25;0.80;;;;;;;9.81;74.26;101517.66;15549006;28;20553;-51
2023/05/06 12:56:35;;;;;;;2.17;0.70;;;;;;;9.82;74.58;101534.59;15527610;28;20184;-52
2023/05/06 13:04:09;;;;;;;0.40;0.40;;;;;;;9.36;75.65;101538.25;15547459;28;20061;-52
2023/05/06 13:11:45;;;;;;;3.15;1.20;;;;;;;8.94;75.49;101536.94;15560656;28;20088;-51
2023/05/06 13:19:19;;;;;;;3.23;0.87;;;;;;;8.92;75.70;101533.63;15547139;28;20042;-54
2023/05/06 13:26:52;;;;;;;2.17;1.60;;;;;;;9.47;74.50;101533.47;15560836;28;20037;-52
2023/05/06 13:34:26;;;;;;;3.83;1.27;;;;;;;9.83;73.48;101544.28;15559107;28;20050;-53
2023/05/06 13:42:01;;;;;;;1.23;1.00;;;;;;;9.37;74.74;101547.13;15561365;28;20133;-55
2023/05/06 13:49:35;;;;;;;1.73;0.90;;;;;;;8.94;75.81;101547.66;15539293;28;20137;-53
2023/05/06 13:57:08;;;;;;;2.40;1.02;;;;;;;8.99;75.15;101557.00;15540759;28;20053;-51
2023/05/06 14:04:42;;;;;;;2.13;1.17;;;;;;;9.26;74.46;101553.75;15557135;28;20100;-53
2023/05/06 14:12:15;;;;;;;4.28;1.38;;;;;;;9.16;75.33;101555.88;15547447;28;20060;-55
2023/05/06 14:19:48;;;;;;;5.43;1.47;;;;;;;9.20;74.15;101543.78;15536338;28;20084;-52
2023/05/06 14:27:21;;;;;;;1.13;0.60;;;;;;;9.18;73.66;101541.25;15530732;28;20129;-55
2023/05/06 14:34:55;;;;;;;1.07;0.77;;;;;;;8.87;74.97;101536.03;15554210;28;20104;-52
2023/05/06 14:42:28;;;;;;;3.17;0.82;;;;;;;8.97;74.65;101541.13;15556547;28;20078;-56
2023/05/06 14:50:02;;;;;;;2.03;0.83;;;;;;;9.15;74.65;101559.56;15560480;28;20045;-53
2023/05/06 14:57:35;;;;;;;1.13;0.63;;;;;;;8.88;75.34;101568.97;15542727;28;20112;-54
2023/05/06 15:05:10;;;;;;;0.47;0.47;;;;;;;8.88;75.61;101567.13;15551298;28;20042;-53
2023/05/06 15:12:43;;;;;;;1.25;0.90;;;;;;;9.08;75.25;101566.63;15554061;28;20332;-51
2023/05/06 15:20:17;;;;;;;2.73;0.50;;;;;;;8.92;74.93;101572.97;15551709;28;20147;-54
2023/05/06 15:27:55;;;;;;;1.38;1.27;;;;;;;9.09;74.75;101570.97;15522653;28;20050;-53
2023/05/06 15:35:30;;;;;;;1.90;0.77;;;;;;;8.96;75.13;101573.44;15546797;28;20041;-54
2023/05/06 15:43:04;;;;;;;1.02;0.38;;;;;;;8.80;76.51;101579.72;15549185;28;20077;-54
2023/05/06 15:50:40;;;;;;;1.77;0.60;;;;;;;8.61;76.89;101589.06;15566938;28;20038;-51
2023/05/06 15:58:12;;;;;;;2.03;0.65;;;;;;;8.42;77.82;101593.84;15552513;28;20046;-54
2023/05/06 16:05:47;;;;;;;2.40;0.67;;;;;;;8.54;78.15;101591.63;15534011;28;20065;-53
2023/05/06 16:13:19;;;;;;;0.82;0.50;;;;;;;8.40;78.26;101601.22;15550643;28;20042;-51
2023/05/06 16:20:54;;;;;;;0.60;0.47;;;;;;;8.64;77.57;101610.97;15550211;28;20046;-50
2023/05/06 16:28:27;;;;;;;1.27;1.02;;;;;;;8.56;77.60;101607.50;15549957;28;20069;-53
2023/05/06 16:36:02;;;;;;;0.68;0.68;;;;;;;8.61;76.45;101611.28;15570044;23;20054;-52
2023/05/06 16:43:35;;;;;;;2.10;1.33;;;;;;;8.86;75.67;101603.97;15549036;28;20034;-52
2023/05/06 16:51:11;;;;;;;2.07;1.40;;;;;;;8.75;76.01;101595.50;15527885;28;20099;-52
2023/05/06 16:58:43;;;;;;;3.47;0.80;;;;;;;8.77;75.72;101601.53;15539441;28;20042;-52
2023/05/06 17:06:17;;;;;;;2.80;1.00;;;;;;;8.77;75.51;101618.41;15562560;28;20050;-54
2023/05/06 17:13:51;;;;;;;2.40;1.30;;;;;;;8.71;75.75;101628.97;15558669;28;20128;-51
2023/05/06 17:21:26;;;;;;;1.48;1.08;;;;;;;8.96;75.00;101627.00;15542755;28;20053;-52
2023/05/06 17:28:59;;;;;;;1.08;0.98;;;;;;;8.97;74.17;101624.13;15543401;28;20053;-54
2023/05/06 17:36:33;;;;;;;2.00;1.42;;;;;;;8.99;74.43;101626.63;15559686;28;20359;-53
2023/05/06 17:44:06;;;;;;;1.80;0.57;;;;;;;8.84;75.02;101627.38;15558595;28;20058;-53
2023/05/06 17:51:44;;;;;;;1.33;0.97;;;;;;;8.86;75.05;101616.50;15546816;28;20049;-53
2023/05/06 17:59:18;;;;;;;1.23;0.68;;;;;;;9.26;73.24;101628.75;15557922;28;20132;-53
2023/05/06 18:06:52;;;;;;;1.70;1.30;;;;;;;8.99;73.72;101640.84;15556057;28;20046;-53
2023/05/06 18:14:24;;;;;;;0.90;0.68;;;;;;;9.30;72.63;101650.69;15553361;28;20132;-54
2023/05/06 18:21:59;;;;;;;0.77;0.53;;;;;;;9.05;73.28;101652.72;15558018;28;20060;-55
2023/05/06 18:29:33;;;;;;;1.00;0.52;;;;;;;8.59;74.90;101661.50;15556130;28;20050;-52
2023/05/06 18:37:07;;;;;;;2.15;1.27;;;;;;;8.51;74.55;101661.53;15553690;28;20045;-52
2023/05/06 18:44:42;;;;;;;1.92;0.98;;;;;;;8.58;74.33;101667.00;15554449;28;20495;-52
2023/05/06 18:52:16;;;;;;;0.82;0.60;;;;;;;8.74;73.72;101684.84;15556277;28;20046;-52
2023/05/06 18:59:49;;;;;;;3.13;1.00;;;;;;;8.58;73.65;101675.91;15556841;28;20042;-50
2023/05/06 19:07:28;;;;;;;1.17;1.00;;;;;;;8.72;73.28;101689.53;15554081;28;20390;-54
2023/05/06 19:15:05;;;;;;;1.60;1.40;;;;;;;8.72;73.31;101690.38;15553931;28;20466;-53
2023/05/06 19:22:39;;;;;;;3.70;1.30;;;;;;;8.66;73.42;101694.56;15519566;28;20053;-54
2023/05/06 19:30:12;;;;;;;1.67;0.77;;;;;;;8.46;74.19;101690.66;15531332;28;20042;-53
2023/05/06 19:37:46;;;;;;;1.50;1.30;;;;;;;8.68;73.52;101687.22;15550923;28;20203;-54
2023/05/06 19:45:19;;;;;;;1.45;1.05;;;;;;;8.78;73.83;101699.56;15535102;28;20663;-53
2023/05/06 19:52:53;;;;;;;3.77;1.43;;;;;;;8.81;73.89;101694.69;15544102;28;20529;-55
2023/05/06 20:00:26;;;;;;;1.48;1.15;;;;;;;8.71;74.64;101702.06;15551072;28;20450;-54
2023/05/06 20:08:00;;;;;;;2.90;1.25;;;;;;;8.96;73.77;101700.13;15548927;28;20066;-51
2023/05/06 20:15:34;;;;;;;4.88;1.35;;;;;;;8.99;73.18;101705.09;15530760;28;20044;-52
2023/05/06 20:23:08;;;;;;;;;;;;;;;8.82;75.03;101711.59;15551095;28;20407;-51
2023/05/06 20:30:41;;;;;;;3.00;1.98;;;;;;;8.71;75.19;101703.91;15516362;28;19921;-54
2023/05/06 20:38:18;;;;;;;2.87;2.13;;;;;;;8.51;75.85;101706.19;15548350;28;20045;-57
2023/05/06 20:45:50;;;;;;;2.42;1.42;;;;;;;8.52;75.81;101718.56;15527879;28;20040;-53
2023/05/06 20:53:26;;;;;;;9.10;1.73;;;;;;;8.84;74.96;101717.59;15545393;28;20049;-53
2023/05/06 21:00:58;;;;;;;7.88;2.53;;;;;;;8.29;77.54;101729.13;15527237;28;20144;-53
2023/05/06 21:08:32;;;;;;;3.00;1.93;;;;;;;8.47;76.56;101734.28;15510067;28;20505;-53
2023/05/06 21:16:05;;;;;;;2.83;1.30;;;;;;;8.33;77.39;101728.59;15545652;28;20333;-52
2023/05/06 21:23:40;;;;;;;3.33;1.95;;;;;;;8.18;77.92;101708.91;15547540;28;20507;-52
2023/05/06 21:31:12;;;;;;;2.42;2.20;;;;;;;8.47;76.82;101723.59;15533157;28;20364;-53
2023/05/06 21:38:47;;;;;;;4.25;2.35;;;;;;;8.71;76.42;101722.66;15547417;28;20046;-55
2023/05/06 21:46:21;;;;;;;2.25;1.13;;;;;;;8.72;76.19;101732.34;15540421;28;20046;-53
2023/05/06 21:53:55;;;;;;;5.53;2.00;;;;;;;8.52;76.94;101730.09;15558477;28;20049;-52
2023/05/06 22:01:28;;;;;;;4.38;2.22;;;;;;;8.28;77.35;101727.44;15553606;28;20507;-53
2023/05/06 22:09:03;;;;;;;5.93;1.33;;;;;;;8.57;77.28;101745.63;15534676;28;20050;-56
2023/05/06 22:16:36;;;;;;;4.43;2.30;;;;;;;8.53;77.39;101744.28;15518877;28;20100;-53
2023/05/06 22:24:10;;;;;;;4.78;2.55;;;;;;;8.71;76.52;101739.53;15533884;28;20045;-52
2023/05/06 22:31:49;;;;;;;5.20;2.75;;;;;;;8.56;77.28;101749.31;15534405;28;20050;-54
2023/05/06 22:39:28;;;;;;;;;;;;;;;8.64;77.20;101754.66;15552715;28;20318;-54
2023/05/06 22:47:01;;;;;;;11.57;4.00;;;;;;;8.87;75.97;101754.72;15533725;28;20420;-54
2023/05/06 22:54:35;;;;;;;4.53;1.92;;;;;;;8.98;75.87;101751.66;15554178;28;20089;-53
2023/05/06 23:02:08;;;;;;;3.97;2.47;;;;;;;8.82;76.67;101757.94;15554603;28;20145;-53
2023/05/06 23:09:42;;;;;;;4.17;1.70;;;;;;;8.51;77.31;101755.19;15553982;28;20142;-52
2023/05/06 23:17:15;;;;;;;3.70;1.42;;;;;;;8.49;77.72;101761.72;15553217;28;20046;-52
2023/05/06 23:24:50;;;;;;;3.30;2.40;;;;;;;8.77;76.94;101751.44;15552933;28;20085;-51
2023/05/06 23:32:22;;;;;;;3.00;2.05;;;;;;;8.78;77.70;101753.09;15551956;28;20046;-54
2023/05/06 23:39:57;;;;;;;1.80;1.57;;;;;;;8.75;77.56;101762.28;15547951;28;20046;-56
2023/05/06 23:47:31;;;;;;;6.53;2.45;;;;;;;9.08;76.38;101762.16;15506257;28;20041;-55
2023/05/06 23:55:08;;;;;;;8.85;2.35;;;;;;;8.75;76.70;101761.47;15549984;28;20056;-54
